createdAt,value
2022-09-01T00:01:21.033Z,99.90
2022-09-01T00:03:26.704Z,99.90
2022-09-01T00:05:28.830Z,99.90
2022-09-01T00:07:31.508Z,99.90
2022-09-01T00:09:33.953Z,99.90
2022-09-01T00:11:36.104Z,99.60
2022-09-01T00:13:38.362Z,99.50
2022-09-01T00:15:40.485Z,99.30
2022-09-01T00:17:42.486Z,99.30
2022-09-01T00:19:44.925Z,99.40
2022-09-01T00:21:47.953Z,99.50
2022-09-01T00:23:49.982Z,99.60
2022-09-01T00:25:52.037Z,99.60
2022-09-01T00:27:55.461Z,99.70
2022-09-01T00:29:57.381Z,99.70
2022-09-01T00:31:59.491Z,99.70
2022-09-01T00:34:02.001Z,99.80
2022-09-01T00:36:05.518Z,99.90
2022-09-01T00:38:07.503Z,99.90
2022-09-01T00:40:13.251Z,99.90
2022-09-01T00:42:15.209Z,99.90
2022-09-01T00:44:23.360Z,99.90
2022-09-01T00:46:33.614Z,99.90
2022-09-01T00:48:39.211Z,99.90
2022-09-01T00:50:42.648Z,99.90
2022-09-01T00:52:55.505Z,99.90
2022-09-01T00:55:01.034Z,99.90
2022-09-01T00:57:04.941Z,99.90
2022-09-01T00:59:08.837Z,99.90
2022-09-01T01:01:12.578Z,99.90
2022-09-01T01:03:14.733Z,99.90
2022-09-01T01:05:16.706Z,99.90
2022-09-01T01:07:22.693Z,99.90
2022-09-01T01:09:27.022Z,99.90
2022-09-01T01:11:32.468Z,99.90
2022-09-01T01:14:12.158Z,99.90
2022-09-01T01:16:16.013Z,99.90
2022-09-01T01:18:23.175Z,99.90
2022-09-01T01:20:50.145Z,99.90
2022-09-01T01:23:37.163Z,99.90
2022-09-01T01:25:42.122Z,99.90
2022-09-01T01:27:44.057Z,99.90
2022-09-01T01:29:47.757Z,99.90
2022-09-01T01:31:52.238Z,99.90
2022-09-01T01:33:56.850Z,99.90
2022-09-01T01:36:00.000Z,99.90
2022-09-01T01:38:07.977Z,99.90
2022-09-01T01:40:15.706Z,99.90
2022-09-01T01:42:18.088Z,99.90
2022-09-01T01:44:24.099Z,99.90
2022-09-01T01:46:26.960Z,99.90
2022-09-01T01:48:34.561Z,99.90
2022-09-01T01:50:37.933Z,99.90
2022-09-01T01:52:45.364Z,99.90
2022-09-01T01:54:47.572Z,99.90
2022-09-01T01:56:49.685Z,99.90
2022-09-01T01:58:56.494Z,99.90
2022-09-01T02:00:59.052Z,99.90
2022-09-01T02:03:01.215Z,99.90
2022-09-01T02:05:03.167Z,99.90
2022-09-01T02:07:06.414Z,99.90
2022-09-01T02:09:13.020Z,99.90
2022-09-01T02:11:17.356Z,99.90
2022-09-01T02:13:20.976Z,99.90
2022-09-01T02:15:22.953Z,99.90
2022-09-01T02:17:25.585Z,99.90
2022-09-01T02:19:27.570Z,99.90
2022-09-01T02:21:29.547Z,99.90
2022-09-01T02:23:32.736Z,99.90
2022-09-01T02:25:35.651Z,99.90
2022-09-01T02:27:39.636Z,99.90
2022-09-01T02:29:43.628Z,99.90
2022-09-01T02:31:46.532Z,99.90
2022-09-01T02:33:48.739Z,99.90
2022-09-01T02:35:58.080Z,99.90
2022-09-01T02:38:01.084Z,99.90
2022-09-01T02:40:03.287Z,99.90
2022-09-01T02:42:05.439Z,99.90
2022-09-01T02:44:11.841Z,99.90
2022-09-01T02:46:15.215Z,99.90
2022-09-01T02:48:18.675Z,99.90
2022-09-01T02:50:22.595Z,99.90
2022-09-01T02:52:24.489Z,99.90
2022-09-01T02:54:29.933Z,99.90
2022-09-01T02:56:31.823Z,99.90
2022-09-01T02:58:34.409Z,99.90
2022-09-01T03:00:39.789Z,99.90
2022-09-01T03:02:41.734Z,99.90
2022-09-01T03:04:44.023Z,99.90
2022-09-01T03:06:46.881Z,99.90
2022-09-01T03:08:55.850Z,99.90
2022-09-01T03:11:01.514Z,99.90
2022-09-01T03:13:24.070Z,99.90
2022-09-01T03:15:27.199Z,99.90
2022-09-01T03:17:29.151Z,99.90
2022-09-01T03:19:40.199Z,99.90
2022-09-01T03:21:44.412Z,99.90
2022-09-01T03:23:46.771Z,99.90
2022-09-01T03:25:48.978Z,99.90
2022-09-01T03:27:52.606Z,99.90
2022-09-01T03:29:54.477Z,99.90
2022-09-01T03:31:56.589Z,99.90
2022-09-01T03:34:00.680Z,99.90
2022-09-01T03:36:02.849Z,99.90
2022-09-01T03:38:05.525Z,99.90
2022-09-01T03:40:09.167Z,99.90
2022-09-01T03:42:20.082Z,99.90
2022-09-01T03:44:22.048Z,99.90
2022-09-01T03:46:25.565Z,99.90
2022-09-01T03:48:29.693Z,99.90
2022-09-01T03:50:31.932Z,99.90
2022-09-01T03:52:34.342Z,99.90
2022-09-01T03:54:37.255Z,99.90
2022-09-01T03:56:41.383Z,99.90
2022-09-01T03:58:47.527Z,99.90
2022-09-01T04:00:57.004Z,99.90
2022-09-01T04:03:00.727Z,99.90
2022-09-01T04:05:06.422Z,99.90
2022-09-01T04:07:10.262Z,99.90
2022-09-01T04:09:21.023Z,99.90
2022-09-01T04:11:24.190Z,99.90
2022-09-01T04:13:34.681Z,99.90
2022-09-01T04:15:38.893Z,99.90
2022-09-01T04:18:00.702Z,99.90
2022-09-01T04:20:09.003Z,99.90
2022-09-01T04:22:14.416Z,99.90
2022-09-01T04:24:16.928Z,99.90
2022-09-01T04:26:20.872Z,99.90
2022-09-01T04:28:26.276Z,99.90
2022-09-01T04:30:32.004Z,99.90
2022-09-01T04:32:35.089Z,99.90
2022-09-01T04:34:38.406Z,99.90
2022-09-01T04:36:43.913Z,99.90
2022-09-01T04:38:47.372Z,99.90
2022-09-01T04:40:49.672Z,99.90
2022-09-01T04:42:51.633Z,99.90
2022-09-01T04:44:54.651Z,99.90
2022-09-01T04:46:56.854Z,99.90
2022-09-01T04:48:59.785Z,99.90
2022-09-01T04:51:01.938Z,99.90
2022-09-01T04:53:06.898Z,99.90
2022-09-01T04:55:17.644Z,99.90
2022-09-01T04:57:20.413Z,99.90
2022-09-01T04:59:24.585Z,99.90
2022-09-01T05:01:27.687Z,99.90
2022-09-01T05:03:32.191Z,99.90
2022-09-01T06:13:27.468Z,99.90
2022-09-01T06:15:30.956Z,99.90
2022-09-01T06:17:35.912Z,99.90
2022-09-01T06:19:40.103Z,99.90
2022-09-01T06:21:42.401Z,99.90
2022-09-01T06:23:45.310Z,99.90
2022-09-01T06:25:47.737Z,99.90
2022-09-01T06:27:49.844Z,99.90
2022-09-01T06:29:54.735Z,99.90
2022-09-01T06:31:56.869Z,99.90
2022-09-01T06:34:00.337Z,99.90
2022-09-01T06:36:05.668Z,99.90
2022-09-01T06:38:09.045Z,99.90
2022-09-01T06:40:19.709Z,99.90
2022-09-01T06:42:23.471Z,99.90
2022-09-01T06:44:25.395Z,99.90
2022-09-01T06:46:29.586Z,99.90
2022-09-01T06:48:33.814Z,99.90
2022-09-01T06:53:34.533Z,99.90
2022-09-01T06:55:38.587Z,99.90
2022-09-01T07:00:08.053Z,99.90
2022-09-01T07:04:39.527Z,99.90
2022-09-01T07:09:20.012Z,99.90
2022-09-01T07:16:32.520Z,99.90
2022-09-01T07:18:37.156Z,99.90
2022-09-01T07:21:02.695Z,99.90
2022-09-01T07:23:06.049Z,99.90
2022-09-01T07:25:11.590Z,99.90
2022-09-01T07:27:14.424Z,99.90
2022-09-01T07:29:21.949Z,99.90
2022-09-01T07:34:37.689Z,99.90
2022-09-01T07:39:48.978Z,99.90
2022-09-01T07:42:30.799Z,99.90
2022-09-01T07:43:33.458Z,99.90
2022-09-01T07:45:47.162Z,99.90
2022-09-01T07:47:53.365Z,99.90
2022-09-01T07:50:25.626Z,99.90
2022-09-01T07:52:22.691Z,99.90
2022-09-01T07:54:25.341Z,99.90
2022-09-01T07:56:27.328Z,99.90
2022-09-01T07:58:33.655Z,99.90
2022-09-01T08:00:37.037Z,99.90
2022-09-01T08:02:42.140Z,99.60
2022-09-01T08:04:44.242Z,99.40
2022-09-01T08:06:46.117Z,99.30
2022-09-01T08:08:50.776Z,99.00
2022-09-01T08:10:53.162Z,98.70
2022-09-01T08:12:56.876Z,98.40
2022-09-01T08:15:41.470Z,98.00
2022-09-01T08:17:51.122Z,97.40
2022-09-01T08:19:43.992Z,96.70
2022-09-01T08:21:46.156Z,96.10
2022-09-01T08:23:48.512Z,95.50
2022-09-01T08:25:50.822Z,94.90
2022-09-01T08:27:59.873Z,94.70
2022-09-01T08:30:04.825Z,94.50
2022-09-01T08:32:06.864Z,94.20
2022-09-01T08:34:10.838Z,93.90
2022-09-01T08:36:14.690Z,93.70
2022-09-01T08:38:17.358Z,93.30
2022-09-01T08:40:23.638Z,93.00
2022-09-01T08:42:43.879Z,92.50
2022-09-01T08:45:18.625Z,91.90
2022-09-01T08:47:28.775Z,91.10
2022-09-01T08:49:44.288Z,91.70
2022-09-01T08:52:00.973Z,91.40
2022-09-01T08:54:32.074Z,90.60
2022-09-01T08:56:37.520Z,90.80
2022-09-01T08:58:40.270Z,90.50
2022-09-01T09:00:54.860Z,90.00
2022-09-01T09:03:12.685Z,89.80
2022-09-01T09:05:43.382Z,89.30
2022-09-01T09:07:51.388Z,88.30
2022-09-01T09:10:21.785Z,87.20
2022-09-01T09:12:51.670Z,86.90
2022-09-01T09:15:19.135Z,86.70
2022-09-01T09:17:27.493Z,85.20
2022-09-01T09:19:37.099Z,83.20
2022-09-01T09:21:42.368Z,81.50
2022-09-01T09:23:48.579Z,80.40
2022-09-01T09:25:50.984Z,79.60
2022-09-01T09:28:02.348Z,78.50
2022-09-01T09:30:13.247Z,78.40
2022-09-01T09:32:23.058Z,78.10
2022-09-01T09:34:27.814Z,78.40
2022-09-01T09:36:33.643Z,78.20
2022-09-01T09:38:35.564Z,76.60
2022-09-01T09:41:06.674Z,75.20
2022-09-01T09:43:04.237Z,72.00
2022-09-01T09:45:35.217Z,72.60
2022-09-01T09:47:45.407Z,71.60
2022-09-01T09:49:48.933Z,70.80
2022-09-01T09:52:12.497Z,70.40
2022-09-01T09:54:22.598Z,71.00
2022-09-01T09:56:25.724Z,69.00
2022-09-01T09:58:48.012Z,70.00
2022-09-01T10:01:09.214Z,67.10
2022-09-01T10:03:13.603Z,66.60
2022-09-01T10:05:33.230Z,66.70
2022-09-01T10:07:37.683Z,61.30
2022-09-01T10:09:39.640Z,64.30
2022-09-01T10:11:45.019Z,62.70
2022-09-01T10:13:46.950Z,61.00
2022-09-01T10:15:54.877Z,60.80
2022-09-01T10:18:19.980Z,60.10
2022-09-01T10:20:23.749Z,57.90
2022-09-01T10:22:26.199Z,56.50
2022-09-01T10:24:33.514Z,60.20
2022-09-01T10:26:41.287Z,61.00
2022-09-01T10:29:08.414Z,60.40
2022-09-01T10:31:15.090Z,56.70
2022-09-01T10:33:21.007Z,58.30
2022-09-01T10:35:29.797Z,59.00
2022-09-01T10:37:32.751Z,59.80
2022-09-01T10:39:54.693Z,60.40
2022-09-01T10:42:00.002Z,59.90
2022-09-01T10:44:11.634Z,60.80
2022-09-01T10:46:37.728Z,57.60
2022-09-01T10:48:55.398Z,59.00
2022-09-01T10:51:19.359Z,59.70
2022-09-01T10:53:34.989Z,59.40
2022-09-01T10:55:41.713Z,57.00
2022-09-01T10:58:07.813Z,53.10
2022-09-01T11:00:35.999Z,51.80
2022-09-01T11:02:42.407Z,52.30
2022-09-01T11:04:48.867Z,51.50
2022-09-01T11:09:28.108Z,50.90
2022-09-01T11:11:47.358Z,49.90
2022-09-01T11:13:52.267Z,50.10
2022-09-01T11:15:54.831Z,49.50
2022-09-01T11:18:01.517Z,48.70
2022-09-01T11:20:25.825Z,48.90
2022-09-01T11:22:43.748Z,47.10
2022-09-01T11:25:00.388Z,47.10
2022-09-01T11:27:48.515Z,47.90
2022-09-01T11:29:58.301Z,46.70
2022-09-01T11:32:00.907Z,47.60
2022-09-01T11:34:24.370Z,47.50
2022-09-01T11:36:48.575Z,47.00
2022-09-01T11:38:55.073Z,45.00
2022-09-01T11:40:58.494Z,46.20
2022-09-01T11:43:10.629Z,46.60
2022-09-01T11:45:23.033Z,46.50
2022-09-01T11:47:32.528Z,45.70
2022-09-01T11:49:40.309Z,44.70
2022-09-01T11:51:47.991Z,44.30
2022-09-01T11:53:51.945Z,44.80
2022-09-01T11:55:57.307Z,45.20
2022-09-01T11:57:59.527Z,44.50
2022-09-01T12:00:11.131Z,44.50
2022-09-01T12:02:29.400Z,43.10
2022-09-01T12:04:38.009Z,41.80
2022-09-01T12:06:40.072Z,41.40
2022-09-01T12:08:51.035Z,41.80
2022-09-01T12:11:13.754Z,41.60
2022-09-01T12:13:20.036Z,41.00
2022-09-01T12:15:25.501Z,41.40
2022-09-01T12:17:27.874Z,42.60
2022-09-01T12:19:35.706Z,44.50
2022-09-01T12:21:42.936Z,42.60
2022-09-01T12:23:45.377Z,43.10
2022-09-01T12:25:47.413Z,43.10
2022-09-01T12:27:49.514Z,42.50
2022-09-01T12:29:51.856Z,42.40
2022-09-01T12:31:54.819Z,42.40
2022-09-01T12:33:56.850Z,44.10
2022-09-01T12:36:15.460Z,44.10
2022-09-01T12:38:20.336Z,43.20
2022-09-01T12:40:31.544Z,42.80
2022-09-01T12:42:38.914Z,43.00
2022-09-01T12:45:03.772Z,43.10
2022-09-01T12:47:12.163Z,43.70
2022-09-01T12:49:28.961Z,44.30
2022-09-01T12:51:31.741Z,43.40
2022-09-01T12:53:36.670Z,44.30
2022-09-01T12:55:54.323Z,43.80
2022-09-01T12:57:59.800Z,43.50
2022-09-01T13:00:10.916Z,43.20
2022-09-01T13:02:37.790Z,42.00
2022-09-01T13:04:41.722Z,43.40
2022-09-01T13:06:43.729Z,43.30
2022-09-01T13:08:46.219Z,43.10
2022-09-01T13:10:51.955Z,41.90
2022-09-01T13:12:55.204Z,42.40
2022-09-01T13:14:57.378Z,41.70
2022-09-01T13:16:59.540Z,41.80
2022-09-01T13:19:26.497Z,42.00
2022-09-01T13:21:24.809Z,41.50
2022-09-01T13:23:27.370Z,42.10
2022-09-01T13:25:29.316Z,41.60
2022-09-01T13:27:31.299Z,41.80
2022-09-01T13:29:34.175Z,41.00
2022-09-01T13:31:36.361Z,41.30
2022-09-01T13:36:01.400Z,40.90
2022-09-01T13:38:04.920Z,41.60
2022-09-01T13:40:09.353Z,41.90
2022-09-01T13:42:13.495Z,41.60
2022-09-01T13:44:17.239Z,42.80
2022-09-01T13:46:19.653Z,42.90
2022-09-01T13:48:23.307Z,42.90
2022-09-01T13:50:27.690Z,42.40
2022-09-01T13:52:55.007Z,42.50
2022-09-01T13:54:57.365Z,42.20
2022-09-01T13:56:59.420Z,42.20
2022-09-01T13:59:01.427Z,42.40
2022-09-01T14:01:05.117Z,42.20
2022-09-01T14:03:22.297Z,42.40
2022-09-01T14:05:29.600Z,41.90
2022-09-01T14:07:32.447Z,42.70
2022-09-01T14:09:34.892Z,42.80
2022-09-01T14:11:36.890Z,41.90
2022-09-01T14:13:38.874Z,41.30
2022-09-01T14:15:40.769Z,40.90
2022-09-01T14:17:43.819Z,41.00
2022-09-01T14:19:50.648Z,41.60
2022-09-01T14:21:54.745Z,41.70
2022-09-01T14:23:56.809Z,42.10
2022-09-01T14:25:58.934Z,42.40
2022-09-01T14:28:02.169Z,41.70
2022-09-01T14:30:06.597Z,41.80
2022-09-01T14:32:09.049Z,41.90
2022-09-01T14:34:12.257Z,41.80
2022-09-01T14:36:21.007Z,42.40
2022-09-01T14:38:22.922Z,43.10
2022-09-01T14:40:25.010Z,43.90
2022-09-01T14:42:28.872Z,44.00
2022-09-01T14:44:32.103Z,44.70
2022-09-01T14:46:34.466Z,44.70
2022-09-01T14:48:38.564Z,44.40
2022-09-01T14:50:42.367Z,44.60
2022-09-01T14:52:44.582Z,43.50
2022-09-01T14:54:46.841Z,44.40
2022-09-01T14:59:11.915Z,43.90
2022-09-01T15:01:33.728Z,43.60
2022-09-01T15:03:37.039Z,43.20
2022-09-01T15:05:40.095Z,42.90
2022-09-01T15:07:42.829Z,42.30
2022-09-01T15:09:44.733Z,42.10
2022-09-01T15:11:47.144Z,41.80
2022-09-01T15:13:52.600Z,41.20
2022-09-01T15:15:54.702Z,41.30
2022-09-01T15:17:57.117Z,40.80
2022-09-01T15:20:20.182Z,41.00
2022-09-01T15:22:22.861Z,40.70
2022-09-01T15:24:24.796Z,40.80
2022-09-01T15:26:27.304Z,41.00
2022-09-01T15:28:29.515Z,41.20
2022-09-01T15:30:31.753Z,41.50
2022-09-01T15:32:33.944Z,41.10
2022-09-01T15:34:35.920Z,41.10
2022-09-01T15:36:40.093Z,41.70
2022-09-01T15:38:42.428Z,41.60
2022-09-01T15:40:44.617Z,41.60
2022-09-01T15:42:49.265Z,41.00
2022-09-01T15:44:52.601Z,39.70
2022-09-01T15:46:54.636Z,39.40
2022-09-01T15:48:56.616Z,40.00
2022-09-01T15:51:20.429Z,40.00
2022-09-01T15:53:22.381Z,40.20
2022-09-01T15:55:27.708Z,40.20
2022-09-01T15:57:29.626Z,40.30
2022-09-01T15:59:33.147Z,40.20
2022-09-01T16:01:41.355Z,40.60
2022-09-01T16:03:43.352Z,40.80
2022-09-01T16:05:45.271Z,40.40
2022-09-01T16:07:47.270Z,40.20
2022-09-01T16:09:49.275Z,40.10
2022-09-01T16:11:51.364Z,39.80
2022-09-01T16:13:54.261Z,39.40
2022-09-01T16:16:24.426Z,39.40
2022-09-01T16:18:42.360Z,39.80
2022-09-01T16:20:55.597Z,40.10
2022-09-01T16:23:29.804Z,40.10
2022-09-01T16:25:34.813Z,39.40
2022-09-01T16:27:42.022Z,39.50
2022-09-01T16:29:56.136Z,39.70
2022-09-01T16:31:58.095Z,39.50
2022-09-01T16:34:18.324Z,39.00
2022-09-01T16:36:26.371Z,39.40
2022-09-01T16:38:35.031Z,39.10
2022-09-01T16:40:56.431Z,39.00
2022-09-01T16:42:58.388Z,39.70
2022-09-01T16:45:22.136Z,39.80
2022-09-01T16:47:42.428Z,39.50
2022-09-01T16:50:03.953Z,38.90
2022-09-01T16:52:28.925Z,40.00
2022-09-01T16:54:51.399Z,39.00
2022-09-01T16:56:59.572Z,38.70
2022-09-01T16:59:34.639Z,39.10
2022-09-01T17:01:41.686Z,39.90
2022-09-01T17:04:07.036Z,40.80
2022-09-01T17:06:20.878Z,39.50
2022-09-01T17:08:37.103Z,39.80
2022-09-01T17:10:47.004Z,40.60
2022-09-01T17:12:52.945Z,40.90
2022-09-01T17:15:15.824Z,41.60
2022-09-01T17:17:24.901Z,42.10
2022-09-01T17:19:27.883Z,42.20
2022-09-01T17:21:46.234Z,41.20
2022-09-01T17:23:57.260Z,40.20
2022-09-01T17:26:07.555Z,40.40
2022-09-01T17:28:22.550Z,40.70
2022-09-01T17:30:24.505Z,41.50
2022-09-01T17:32:35.374Z,42.20
2022-09-01T17:35:05.271Z,43.00
2022-09-01T17:37:28.687Z,43.40
2022-09-01T17:40:09.256Z,44.20
2022-09-01T17:42:43.378Z,44.60
2022-09-01T17:44:56.547Z,45.60
2022-09-01T17:47:21.710Z,46.00
2022-09-01T17:49:37.501Z,46.50
2022-09-01T17:52:17.013Z,46.80
2022-09-01T17:54:30.592Z,47.30
2022-09-01T17:56:44.665Z,47.70
2022-09-01T17:58:59.641Z,48.70
2022-09-01T18:01:24.278Z,49.40
2022-09-01T18:03:51.394Z,49.60
2022-09-01T18:06:06.879Z,50.10
2022-09-01T18:08:15.905Z,51.20
2022-09-01T18:10:30.312Z,51.10
2022-09-01T18:12:37.026Z,51.90
2022-09-01T18:15:09.035Z,52.30
2022-09-01T18:17:18.956Z,52.70
2022-09-01T18:19:24.823Z,53.40
2022-09-01T18:21:32.695Z,54.00
2022-09-01T18:23:39.360Z,54.40
2022-09-01T18:25:58.965Z,54.80
2022-09-01T18:28:01.040Z,56.00
2022-09-01T18:30:03.750Z,56.60
2022-09-01T18:32:27.707Z,57.00
2022-09-01T18:35:01.718Z,57.60
2022-09-01T18:37:11.000Z,58.80
2022-09-01T18:39:34.748Z,59.70
2022-09-01T18:41:39.915Z,60.10
2022-09-01T18:43:56.455Z,59.60
2022-09-01T18:46:16.246Z,60.70
2022-09-01T18:48:32.593Z,61.90
2022-09-01T18:50:56.652Z,64.90
2022-09-01T18:53:24.315Z,65.70
2022-09-01T18:55:41.095Z,68.20
2022-09-01T18:57:52.468Z,70.20
2022-09-01T19:00:18.889Z,70.60
2022-09-01T19:02:56.011Z,74.20
2022-09-01T19:05:17.064Z,74.90
2022-09-01T19:07:37.026Z,77.70
2022-09-01T19:09:50.972Z,77.40
2022-09-01T19:12:07.993Z,77.50
2022-09-01T19:14:34.925Z,79.20
2022-09-01T19:17:17.553Z,80.10
2022-09-01T19:19:43.806Z,82.60
2022-09-01T19:21:48.474Z,82.80
2022-09-01T19:24:13.238Z,81.90
2022-09-01T19:26:21.311Z,84.00
2022-09-01T19:28:36.200Z,83.20
2022-09-01T19:30:48.046Z,84.20
2022-09-01T19:32:50.802Z,84.50
2022-09-01T19:35:11.908Z,84.30
2022-09-01T19:37:14.862Z,86.00
2022-09-01T19:39:25.387Z,85.30
2022-09-01T19:41:39.972Z,86.00
2022-09-01T19:43:51.033Z,86.20
2022-09-01T19:46:20.047Z,87.60
2022-09-01T19:48:33.593Z,87.40
2022-09-01T19:50:47.453Z,86.80
2022-09-01T19:53:02.717Z,87.30
2022-09-01T19:55:12.168Z,88.20
2022-09-01T19:57:32.566Z,88.00
2022-09-01T19:59:55.951Z,89.00
2022-09-01T20:02:08.511Z,90.10
2022-09-01T20:04:36.261Z,88.80
2022-09-01T20:06:46.989Z,89.70
2022-09-01T20:09:05.892Z,89.40
2022-09-01T20:11:18.870Z,90.30
2022-09-01T20:13:30.008Z,90.10
2022-09-01T20:15:40.169Z,90.10
2022-09-01T20:17:50.340Z,90.00
2022-09-01T20:20:06.203Z,90.30
2022-09-01T20:22:31.015Z,90.20
2022-09-01T20:24:39.681Z,90.50
2022-09-01T20:26:56.120Z,90.50
2022-09-01T20:29:27.076Z,90.60
2022-09-01T20:31:38.436Z,91.40
2022-09-01T20:33:55.154Z,90.90
2022-09-01T20:36:15.629Z,91.80
2022-09-01T20:38:41.832Z,91.10
2022-09-01T20:40:44.416Z,91.00
2022-09-01T20:43:04.164Z,90.80
2022-09-01T20:45:22.193Z,91.50
2022-09-01T20:47:29.165Z,91.80
2022-09-01T20:49:37.256Z,91.40
2022-09-01T20:51:56.746Z,91.70
2022-09-01T20:54:38.029Z,92.30
2022-09-01T20:56:46.845Z,93.00
2022-09-01T20:59:11.638Z,92.20
2022-09-01T21:01:32.033Z,92.80
2022-09-01T21:03:56.524Z,92.00
2022-09-01T21:06:29.600Z,93.00
2022-09-01T21:08:43.220Z,92.80
2022-09-01T21:11:16.868Z,93.10
2022-09-01T21:13:52.955Z,93.40
2022-09-01T21:16:10.225Z,93.70
2022-09-01T21:18:38.623Z,93.50
2022-09-01T21:20:52.150Z,93.60
2022-09-01T21:22:55.613Z,93.40
2022-09-01T21:24:57.517Z,93.70
2022-09-01T21:27:05.129Z,93.90
2022-09-01T21:29:28.868Z,94.20
2022-09-01T21:31:31.114Z,94.70
2022-09-01T21:33:33.079Z,94.30
2022-09-01T21:35:35.022Z,94.50
2022-09-01T21:37:37.064Z,94.60
2022-09-01T21:39:39.124Z,94.60
2022-09-01T21:41:41.791Z,94.80
2022-09-01T21:43:46.089Z,94.60
2022-09-01T21:45:48.775Z,94.40
2022-09-01T21:47:52.418Z,94.40
2022-09-01T21:49:55.073Z,94.50
2022-09-01T21:51:56.983Z,94.50
2022-09-01T21:53:58.857Z,94.60
2022-09-01T21:56:01.261Z,94.60
2022-09-01T21:58:06.137Z,94.70
2022-09-01T22:00:15.973Z,94.70
2022-09-01T22:02:20.134Z,94.70
2022-09-01T22:04:24.276Z,94.80
2022-09-01T22:06:26.681Z,95.00
2022-09-01T22:08:28.667Z,95.80
2022-09-01T22:10:31.726Z,94.90
2022-09-01T22:12:36.159Z,95.20
2022-09-01T22:14:38.069Z,95.40
2022-09-01T22:16:40.285Z,95.50
2022-09-01T22:18:42.215Z,95.50
2022-09-01T22:20:44.859Z,95.70
2022-09-01T22:22:46.943Z,95.90
2022-09-01T22:24:48.921Z,96.10
2022-09-01T22:26:50.882Z,96.10
2022-09-01T22:28:59.026Z,96.20
2022-09-01T22:31:01.387Z,96.40
2022-09-01T22:33:05.630Z,96.50
2022-09-01T22:35:08.997Z,96.50
2022-09-01T22:37:11.002Z,97.40
2022-09-01T22:39:14.653Z,96.40
2022-09-01T22:41:21.666Z,96.60
2022-09-01T22:43:25.202Z,96.80
2022-09-01T22:45:27.096Z,96.70
2022-09-01T22:47:29.165Z,96.80
2022-09-01T22:49:31.115Z,96.80
2022-09-01T22:51:34.279Z,96.70
2022-09-01T22:53:38.602Z,96.70
2022-09-01T22:55:42.922Z,96.70
2022-09-01T22:57:44.939Z,96.70
2022-09-01T22:59:46.917Z,96.90
2022-09-01T23:01:48.980Z,96.70
2022-09-01T23:03:52.049Z,97.00
2022-09-01T23:06:12.613Z,96.60
2022-09-01T23:08:15.119Z,97.00
2022-09-01T23:10:17.032Z,96.40
2022-09-01T23:12:18.976Z,96.60
2022-09-01T23:14:20.871Z,96.60
2022-09-01T23:16:23.699Z,96.70
2022-09-01T23:18:27.811Z,96.70
2022-09-01T23:20:30.203Z,96.60
2022-09-01T23:22:32.092Z,96.70
2022-09-01T23:24:34.068Z,96.80
2022-09-01T23:26:36.504Z,96.80
2022-09-01T23:28:40.486Z,96.90
2022-09-01T23:30:47.073Z,97.00
2022-09-01T23:32:48.930Z,97.00
2022-09-01T23:34:51.101Z,97.00
2022-09-01T23:36:53.014Z,96.90
2022-09-01T23:38:55.784Z,96.90
2022-09-01T23:40:58.632Z,97.00
2022-09-01T23:43:00.611Z,97.00
2022-09-01T23:45:02.583Z,97.00
2022-09-01T23:47:04.645Z,96.90
2022-09-01T23:49:07.827Z,96.80
2022-09-01T23:51:11.488Z,96.90
2022-09-01T23:53:14.281Z,96.90
2022-09-01T23:55:16.268Z,96.90
2022-09-01T23:57:19.114Z,96.90
2022-09-01T23:59:24.223Z,97.10
